Time;durP1;ratioP1;P1;durP2;ratioP2;P2;SDS_P1;SDS_P2;PMS_P1;PMS_P2;Temp;Humidity;BMP_temperature;BMP_pressure;BME280_temperature;BME280_humidity;BME280_pressure;Samples;Min_cycle;Max_cycle;Signal;HPM_P1;HPM_P2
2023/07/08 00:00:24;;;;;;;0.85;0.85;;;22.00;54.80;;;;;;5052667;28;20189;-64
2023/07/08 00:02:50;;;;;;;0.10;0.10;;;22.00;54.40;;;;;;5053227;28;20271;-64
2023/07/08 00:05:18;;;;;;;0.00;0.00;;;22.00;54.40;;;;;;5052653;28;20184;-64
2023/07/08 00:07:45;;;;;;;0.10;0.10;;;21.90;54.50;;;;;;5052281;28;20177;-64
2023/07/08 00:10:16;;;;;;;0.00;0.00;;;21.90;54.60;;;;;;5052783;28;20747;-64
2023/07/08 00:12:44;;;;;;;0.22;0.22;;;21.90;54.70;;;;;;5052701;28;20185;-64
2023/07/08 00:15:10;;;;;;;0.63;0.43;;;21.90;54.90;;;;;;5052784;28;20205;-64
2023/07/08 00:17:36;;;;;;;0.05;0.05;;;21.80;55.10;;;;;;5052491;28;20228;-64
2023/07/08 00:20:34;;;;;;;0.32;0.22;;;21.80;55.10;;;;;;5051522;28;20189;-65
2023/07/08 00:23:02;;;;;;;0.00;0.00;;;21.70;55.20;;;;;;5043611;28;20197;-65
2023/07/08 00:25:29;;;;;;;0.00;0.00;;;21.70;55.20;;;;;;5052229;28;20182;-65
2023/07/08 00:27:55;;;;;;;0.00;0.00;;;21.60;55.30;;;;;;5049873;28;20244;-65
2023/07/08 00:30:26;;;;;;;0.00;0.00;;;21.60;55.30;;;;;;5068286;28;20174;-66
2023/07/08 00:32:55;;;;;;;0.00;0.00;;;21.60;55.50;;;;;;5052732;28;20174;-66
2023/07/08 00:35:41;;;;;;;0.10;0.10;;;21.50;55.50;;;;;;5052197;28;20695;-65
2023/07/08 00:38:17;;;;;;;0.05;0.05;;;21.50;55.60;;;;;;5052235;28;20189;-64
2023/07/08 00:41:16;;;;;;;0.00;0.00;;;21.50;55.70;;;;;;5051873;28;20180;-65
2023/07/08 00:43:50;;;;;;;0.00;0.00;;;21.50;55.60;;;;;;5047883;28;20225;-65
2023/07/08 00:46:18;;;;;;;0.00;0.00;;;21.40;55.70;;;;;;5051632;28;20182;-65
2023/07/08 00:48:45;;;;;;;0.00;0.00;;;21.40;55.90;;;;;;5051754;28;20185;-65
2023/07/08 00:51:12;;;;;;;0.03;0.03;;;21.40;55.90;;;;;;5037269;28;20286;-65
2023/07/08 00:53:38;;;;;;;0.10;0.10;;;21.40;56.20;;;;;;5050584;28;20268;-65
2023/07/08 00:56:08;;;;;;;0.00;0.00;;;21.40;56.30;;;;;;5052012;28;20185;-65
2023/07/08 00:58:40;;;;;;;0.00;0.00;;;21.30;56.70;;;;;;5051395;28;20189;-65
2023/07/08 01:01:07;;;;;;;0.00;0.00;;;21.30;56.90;;;;;;5050961;28;20209;-65
2023/07/08 01:03:40;;;;;;;0.00;0.00;;;21.30;57.10;;;;;;5050828;28;20178;-65
2023/07/08 01:06:06;;;;;;;0.10;0.10;;;21.30;57.60;;;;;;5032057;28;20209;-65
2023/07/08 01:08:32;;;;;;;0.00;0.00;;;21.20;57.60;;;;;;5048980;28;20197;-64
2023/07/08 01:11:01;;;;;;;0.00;0.00;;;21.20;57.80;;;;;;5051472;28;20256;-65
2023/07/08 01:13:30;;;;;;;0.00;0.00;;;21.20;58.00;;;;;;5051306;28;20548;-65
2023/07/08 01:15:56;;;;;;;0.10;0.10;;;21.20;58.10;;;;;;5049096;28;20193;-65
2023/07/08 01:18:22;;;;;;;0.10;0.10;;;21.10;58.10;;;;;;5049119;28;20684;-65
2023/07/08 01:20:48;;;;;;;0.10;0.10;;;21.10;58.40;;;;;;5050556;28;20178;-65
2023/07/08 01:23:14;;;;;;;0.00;0.00;;;21.10;58.70;;;;;;5051291;28;20193;-65
2023/07/08 01:25:42;;;;;;;0.00;0.00;;;21.00;58.80;;;;;;5049844;28;20176;-65
2023/07/08 01:28:07;;;;;;;0.00;0.00;;;20.90;59.00;;;;;;5047782;28;20646;-65
2023/07/08 01:30:33;;;;;;;0.00;0.00;;;20.80;59.00;;;;;;5050958;28;20296;-65
2023/07/08 01:33:02;;;;;;;0.20;0.20;;;20.80;59.20;;;;;;5051249;28;20268;-65
2023/07/08 01:35:28;;;;;;;0.00;0.00;;;20.70;59.20;;;;;;5050863;28;20177;-65
2023/07/08 01:37:58;;;;;;;0.00;0.00;;;20.70;59.50;;;;;;5050892;28;20174;-65
2023/07/08 01:40:30;;;;;;;0.00;0.00;;;20.60;60.00;;;;;;5050210;28;20232;-65
2023/07/08 01:42:57;;;;;;;0.10;0.10;;;20.60;60.00;;;;;;5033974;28;20224;-65
2023/07/08 01:45:26;;;;;;;0.00;0.00;;;20.50;60.40;;;;;;5050886;28;20223;-65
2023/07/08 01:47:56;;;;;;;0.00;0.00;;;20.40;60.60;;;;;;5049812;28;20173;-65
2023/07/08 01:50:23;;;;;;;0.00;0.00;;;20.40;61.30;;;;;;5050757;28;20723;-65
2023/07/08 01:52:50;;;;;;;0.08;0.08;;;20.30;60.90;;;;;;5050968;28;20173;-65
2023/07/08 01:55:21;;;;;;;0.00;0.00;;;20.30;61.60;;;;;;5049984;28;20538;-65
2023/07/08 01:57:47;;;;;;;0.00;0.00;;;20.20;61.80;;;;;;5049393;28;20264;-65
2023/07/08 02:00:13;;;;;;;0.00;0.00;;;20.10;63.20;;;;;;5050952;28;20470;-65
2023/07/08 02:02:38;;;;;;;0.00;0.00;;;20.10;63.40;;;;;;5050431;28;20249;-65
2023/07/08 02:05:04;;;;;;;0.00;0.00;;;20.10;63.60;;;;;;5050814;28;20232;-65
2023/07/08 02:07:30;;;;;;;0.00;0.00;;;20.00;64.20;;;;;;5049131;28;20174;-65
2023/07/08 02:09:55;;;;;;;0.00;0.00;;;19.90;64.40;;;;;;5050614;28;20173;-65
2023/07/08 02:12:20;;;;;;;0.00;0.00;;;19.90;64.30;;;;;;5050853;28;20169;-65
2023/07/08 02:14:46;;;;;;;0.47;0.38;;;19.80;64.20;;;;;;5050757;28;20649;-65
2023/07/08 02:17:14;;;;;;;0.00;0.00;;;19.80;64.00;;;;;;5050337;28;20177;-65
2023/07/08 02:19:40;;;;;;;0.00;0.00;;;19.70;63.90;;;;;;5050697;28;20170;-65
2023/07/08 02:22:05;;;;;;;0.43;0.43;;;19.70;64.40;;;;;;5049817;28;20209;-65
2023/07/08 02:24:31;;;;;;;0.75;0.10;;;19.70;64.80;;;;;;5049604;28;20668;-65
2023/07/08 02:26:57;;;;;;;0.00;0.00;;;19.60;65.30;;;;;;5050080;28;20260;-65
2023/07/08 02:29:22;;;;;;;0.73;0.73;;;19.60;65.70;;;;;;5047330;28;21483;-65
2023/07/08 02:31:48;;;;;;;0.00;0.00;;;19.60;66.30;;;;;;5054052;28;20268;-64
2023/07/08 02:34:13;;;;;;;0.00;0.00;;;19.50;66.80;;;;;;5053847;28;20687;-65
2023/07/08 02:36:39;;;;;;;0.10;0.10;;;19.50;67.10;;;;;;5054238;28;20174;-64
2023/07/08 02:39:05;;;;;;;0.38;0.38;;;19.40;67.40;;;;;;5054266;28;20196;-64
2023/07/08 02:41:31;;;;;;;0.00;0.00;;;19.40;67.30;;;;;;5052540;28;20220;-64
2023/07/08 02:43:56;;;;;;;0.10;0.10;;;19.30;67.20;;;;;;5054239;28;20178;-65
2023/07/08 02:46:22;;;;;;;0.00;0.00;;;19.30;66.90;;;;;;5054336;28;20637;-65
2023/07/08 02:48:47;;;;;;;0.00;0.00;;;19.30;66.90;;;;;;5054115;28;20188;-65
2023/07/08 02:51:13;;;;;;;0.10;0.10;;;19.30;67.00;;;;;;5054538;28;20158;-65
2023/07/08 02:53:38;;;;;;;0.00;0.00;;;19.30;67.40;;;;;;5052175;28;20188;-64
2023/07/08 02:56:04;;;;;;;0.00;0.00;;;19.30;67.80;;;;;;5054046;28;20197;-65
2023/07/08 02:58:29;;;;;;;0.00;0.00;;;19.20;68.10;;;;;;5052672;28;20219;-64
2023/07/08 03:00:59;;;;;;;0.00;0.00;;;19.20;68.10;;;;;;5052715;28;20268;-66
2023/07/08 03:03:24;;;;;;;0.10;0.10;;;19.10;68.40;;;;;;5053867;28;20185;-65
2023/07/08 03:06:02;;;;;;;0.00;0.00;;;19.10;69.60;;;;;;5054130;28;20201;-64
2023/07/08 03:08:29;;;;;;;0.00;0.00;;;19.10;70.30;;;;;;5053570;28;20189;-65
2023/07/08 03:11:04;;;;;;;0.20;0.20;;;19.00;71.00;;;;;;5053768;28;20189;-65
2023/07/08 03:13:31;;;;;;;0.00;0.00;;;19.00;71.50;;;;;;5053725;28;20220;-64
2023/07/08 03:15:59;;;;;;;0.00;0.00;;;18.90;72.10;;;;;;5053513;28;20516;-64
2023/07/08 03:18:26;;;;;;;0.00;0.00;;;18.80;72.50;;;;;;5053703;28;20178;-64
2023/07/08 03:20:56;;;;;;;0.05;0.05;;;18.70;72.70;;;;;;5053292;28;20268;-64
2023/07/08 03:23:25;;;;;;;0.00;0.00;;;18.60;73.40;;;;;;5053366;28;20193;-64
2023/07/08 03:25:51;;;;;;;0.10;0.10;;;18.60;73.90;;;;;;5053761;28;20185;-64
2023/07/08 03:28:17;;;;;;;0.00;0.00;;;18.50;74.20;;;;;;5053251;28;20291;-65
2023/07/08 03:30:43;;;;;;;0.00;0.00;;;18.60;74.40;;;;;;5053203;28;20558;-64
2023/07/08 03:33:09;;;;;;;0.00;0.00;;;18.60;74.60;;;;;;5053271;28;20182;-64
2023/07/08 03:35:35;;;;;;;0.00;0.00;;;18.60;75.10;;;;;;5053299;28;20231;-64
2023/07/08 03:38:01;;;;;;;0.00;0.00;;;18.70;75.40;;;;;;5052944;28;20169;-64
2023/07/08 03:40:26;;;;;;;0.10;0.10;;;18.70;75.40;;;;;;5052985;28;20177;-65
2023/07/08 03:42:52;;;;;;;0.00;0.00;;;18.70;75.80;;;;;;5051673;28;20239;-65
2023/07/08 03:45:17;;;;;;;0.00;0.00;;;18.80;76.00;;;;;;5052949;28;20269;-65
2023/07/08 03:47:43;;;;;;;0.00;0.00;;;18.80;75.70;;;;;;5053491;28;20166;-64
2023/07/08 03:50:21;;;;;;;0.00;0.00;;;18.90;75.60;;;;;;5051173;28;20180;-64
2023/07/08 03:52:48;;;;;;;0.08;0.08;;;19.00;74.00;;;;;;5051845;28;20177;-65
2023/07/08 03:55:15;;;;;;;0.00;0.00;;;19.10;72.50;;;;;;5052431;28;20242;-65
2023/07/08 03:57:40;;;;;;;0.15;0.15;;;19.20;71.70;;;;;;5052564;28;20189;-65
2023/07/08 04:00:11;;;;;;;0.00;0.00;;;19.20;71.40;;;;;;5072919;28;20180;-65
2023/07/08 04:02:47;;;;;;;0.00;0.00;;;19.30;71.10;;;;;;5064279;28;20217;-65
2023/07/08 04:05:21;;;;;;;0.00;0.00;;;19.20;70.30;;;;;;5052757;28;20284;-65
2023/07/08 04:07:48;;;;;;;0.00;0.00;;;19.20;70.40;;;;;;5052794;28;20180;-65
2023/07/08 04:10:14;;;;;;;0.30;0.30;;;19.30;70.20;;;;;;5053233;28;20208;-64
2023/07/08 04:12:40;;;;;;;0.00;0.00;;;19.30;69.20;;;;;;5072000;28;20181;-65
2023/07/08 04:15:09;;;;;;;0.00;0.00;;;19.30;69.30;;;;;;5060696;28;20223;-66
2023/07/08 04:17:40;;;;;;;0.05;0.05;;;19.40;69.00;;;;;;5051694;28;20174;-66
2023/07/08 04:20:08;;;;;;;0.00;0.00;;;19.50;68.70;;;;;;5051432;28;20199;-66
2023/07/08 04:22:34;;;;;;;0.10;0.10;;;19.50;68.10;;;;;;5052265;28;20845;-66
2023/07/08 04:24:59;;;;;;;0.00;0.00;;;19.50;68.20;;;;;;5052583;28;20170;-67
2023/07/08 04:27:25;;;;;;;0.00;0.00;;;19.50;68.40;;;;;;5052010;28;20692;-66
2023/07/08 04:29:50;;;;;;;0.00;0.00;;;19.60;68.70;;;;;;5044443;28;20593;-66
2023/07/08 04:32:16;;;;;;;0.00;0.00;;;19.90;68.70;;;;;;5050883;28;20174;-66
2023/07/08 04:34:41;;;;;;;0.20;0.20;;;20.00;68.00;;;;;;5051943;28;20230;-66
2023/07/08 04:37:10;;;;;;;0.00;0.00;;;20.20;67.80;;;;;;5052211;28;20169;-66
2023/07/08 04:39:36;;;;;;;0.10;0.10;;;20.40;67.70;;;;;;5051685;28;20255;-66
2023/07/08 04:42:01;;;;;;;0.00;0.00;;;20.70;67.60;;;;;;5050959;28;20217;-66
2023/07/08 04:44:27;;;;;;;0.00;0.00;;;21.00;67.00;;;;;;5051662;28;20184;-65
2023/07/08 04:46:56;;;;;;;0.00;0.00;;;21.30;66.40;;;;;;5052047;28;20184;-65
2023/07/08 04:49:22;;;;;;;0.00;0.00;;;21.70;66.00;;;;;;5050477;28;20173;-65
2023/07/08 04:51:48;;;;;;;0.00;0.00;;;22.00;65.50;;;;;;5051239;28;20188;-65
2023/07/08 04:54:14;;;;;;;0.00;0.00;;;22.30;64.40;;;;;;5051312;28;20182;-65
2023/07/08 04:56:45;;;;;;;0.00;0.00;;;22.60;63.80;;;;;;5051392;28;20188;-66
2023/07/08 04:59:16;;;;;;;0.00;0.00;;;22.90;63.60;;;;;;5036105;28;20180;-65
2023/07/08 05:01:41;;;;;;;0.00;0.00;;;23.30;62.80;;;;;;5051321;28;20259;-65
2023/07/08 05:04:09;;;;;;;0.05;0.05;;;23.60;62.10;;;;;;5050764;28;20193;-66
2023/07/08 05:06:35;;;;;;;0.00;0.00;;;23.90;60.90;;;;;;5048103;28;20944;-64
2023/07/08 05:09:02;;;;;;;0.00;0.00;;;24.30;60.10;;;;;;5055360;28;20268;-64
2023/07/08 05:11:28;;;;;;;0.00;0.00;;;24.60;59.80;;;;;;5051003;28;20185;-66
2023/07/08 05:13:54;;;;;;;0.00;0.00;;;24.90;59.10;;;;;;5048191;28;20732;-65
2023/07/08 05:16:19;;;;;;;0.00;0.00;;;25.10;58.80;;;;;;5050572;28;20280;-65
2023/07/08 05:18:45;;;;;;;0.00;0.00;;;25.40;57.10;;;;;;5049977;28;20184;-62
2023/07/08 05:21:11;;;;;;;0.03;0.03;;;25.40;57.20;;;;;;5051185;28;20205;-62
2023/07/08 05:23:37;;;;;;;0.00;0.00;;;25.70;56.90;;;;;;5051117;28;20201;-62
2023/07/08 05:26:04;;;;;;;0.00;0.00;;;26.10;56.00;;;;;;5051101;28;20170;-62
2023/07/08 05:28:31;;;;;;;0.05;0.05;;;26.60;55.40;;;;;;5050357;28;20243;-60
2023/07/08 05:30:56;;;;;;;0.00;0.00;;;27.10;53.90;;;;;;5050039;28;20636;-62
2023/07/08 05:33:23;;;;;;;0.00;0.00;;;27.50;53.20;;;;;;5042877;28;20391;-59
2023/07/08 05:35:49;;;;;;;0.00;0.00;;;27.30;52.80;;;;;;5031232;28;20220;-61
2023/07/08 05:38:14;;;;;;;0.03;0.03;;;27.50;52.80;;;;;;5029798;28;20182;-60
2023/07/08 05:40:40;;;;;;;0.03;0.03;;;28.00;52.70;;;;;;5047666;28;20174;-62
2023/07/08 05:43:06;;;;;;;0.00;0.00;;;28.50;51.70;;;;;;5049944;28;20696;-62
2023/07/08 05:45:32;;;;;;;0.00;0.00;;;28.80;50.10;;;;;;5049372;28;20182;-64
2023/07/08 05:47:58;;;;;;;0.17;0.17;;;28.50;50.20;;;;;;5050695;28;20659;-63
2023/07/08 05:50:23;;;;;;;0.10;0.10;;;28.10;50.20;;;;;;5050737;28;20276;-64
2023/07/08 05:52:49;;;;;;;0.00;0.00;;;27.80;50.70;;;;;;5048919;28;20181;-64
2023/07/08 05:55:14;;;;;;;0.00;0.00;;;27.40;51.50;;;;;;5050421;28;20204;-64
2023/07/08 05:57:40;;;;;;;0.00;0.00;;;27.20;52.60;;;;;;5050313;28;20177;-63
2023/07/08 06:00:06;;;;;;;0.00;0.00;;;26.90;53.70;;;;;;5050146;28;20583;-66
2023/07/08 06:02:32;;;;;;;0.10;0.10;;;26.40;55.80;;;;;;5049852;28;20225;-64
2023/07/08 06:04:57;;;;;;;0.20;0.20;;;25.90;56.70;;;;;;5048203;28;20291;-63
2023/07/08 06:07:23;;;;;;;0.00;0.00;;;25.20;57.40;;;;;;5048506;28;20223;-64
2023/07/08 06:09:48;;;;;;;0.80;0.10;;;25.10;58.60;;;;;;5048976;28;20235;-64
2023/07/08 06:12:14;;;;;;;0.00;0.00;;;25.40;58.30;;;;;;5050154;28;20185;-64
2023/07/08 06:14:40;;;;;;;0.00;0.00;;;25.80;58.20;;;;;;5049631;28;20177;-64
2023/07/08 06:17:06;;;;;;;0.00;0.00;;;26.80;57.10;;;;;;5050383;28;20185;-64
2023/07/08 06:19:32;;;;;;;0.00;0.00;;;27.90;55.80;;;;;;5049823;28;20170;-64
2023/07/08 06:21:58;;;;;;;0.00;0.00;;;29.00;53.80;;;;;;5050160;28;20213;-64
2023/07/08 06:24:24;;;;;;;0.00;0.00;;;30.00;51.20;;;;;;5049768;28;20203;-63
2023/07/08 06:26:49;;;;;;;0.00;0.00;;;31.10;49.90;;;;;;5049473;28;20177;-63
2023/07/08 06:29:15;;;;;;;0.00;0.00;;;31.90;47.60;;;;;;5049841;28;20953;-63
2023/07/08 06:31:41;;;;;;;0.13;0.13;;;32.50;46.80;;;;;;5049870;28;20191;-63
2023/07/08 06:34:07;;;;;;;0.00;0.00;;;33.00;46.20;;;;;;5047143;28;20181;-63
2023/07/08 06:36:32;;;;;;;0.00;0.00;;;33.60;44.70;;;;;;5049988;28;20181;-63
2023/07/08 06:38:58;;;;;;;0.00;0.00;;;34.00;44.80;;;;;;5050143;28;20209;-63
2023/07/08 06:41:23;;;;;;;0.00;0.00;;;34.50;44.70;;;;;;5048391;28;20262;-63
2023/07/08 06:43:49;;;;;;;0.00;0.00;;;35.00;43.60;;;;;;5050078;28;20192;-65
2023/07/08 06:46:15;;;;;;;0.00;0.00;;;35.50;43.40;;;;;;5049204;28;20177;-64
2023/07/08 06:48:40;;;;;;;0.00;0.00;;;36.10;42.30;;;;;;5050044;28;20204;-64
2023/07/08 06:51:07;;;;;;;0.13;0.13;;;36.70;41.80;;;;;;5050075;28;20161;-64
2023/07/08 06:53:32;;;;;;;0.38;0.38;;;36.90;40.70;;;;;;5049964;28;20223;-63
2023/07/08 06:55:58;;;;;;;0.00;0.00;;;37.10;40.20;;;;;;5050224;28;20161;-64
2023/07/08 06:58:23;;;;;;;0.00;0.00;;;37.10;39.40;;;;;;5050318;28;20222;-63
2023/07/08 07:00:49;;;;;;;0.00;0.00;;;37.00;40.20;;;;;;5049575;28;20702;-63
2023/07/08 07:03:14;;;;;;;0.00;0.00;;;36.90;40.30;;;;;;5050156;28;20184;-64
2023/07/08 07:05:40;;;;;;;0.00;0.00;;;36.40;40.50;;;;;;5049862;28;20255;-63
2023/07/08 07:08:07;;;;;;;0.00;0.00;;;36.30;41.20;;;;;;5057323;28;20183;-63
2023/07/08 07:10:33;;;;;;;0.43;0.43;;;36.80;41.10;;;;;;5069969;28;20225;-63
2023/07/08 07:12:59;;;;;;;0.00;0.00;;;37.50;40.70;;;;;;5051697;28;20176;-64
2023/07/08 07:15:24;;;;;;;0.00;0.00;;;37.90;40.70;;;;;;5049251;28;20192;-63
2023/07/08 07:17:50;;;;;;;0.00;0.00;;;37.60;40.10;;;;;;5052866;28;20308;-62
2023/07/08 07:20:16;;;;;;;0.00;0.00;;;37.60;40.40;;;;;;5052667;28;20184;-62
2023/07/08 07:22:41;;;;;;;0.10;0.10;;;37.70;40.80;;;;;;5052415;28;20236;-62
2023/07/08 07:25:07;;;;;;;0.00;0.00;;;38.10;40.80;;;;;;5053099;28;20227;-62
2023/07/08 07:27:33;;;;;;;0.00;0.00;;;38.60;40.00;;;;;;5053106;28;20212;-62
2023/07/08 07:29:59;;;;;;;0.10;0.10;;;38.80;39.20;;;;;;5053368;28;20341;-62
2023/07/08 07:32:25;;;;;;;0.10;0.10;;;39.00;39.60;;;;;;5053342;28;20556;-62
2023/07/08 07:34:52;;;;;;;0.43;0.00;;;38.60;40.20;;;;;;5045345;28;20196;-62
2023/07/08 07:37:20;;;;;;;0.00;0.00;;;38.70;40.20;;;;;;5053300;28;20169;-62
2023/07/08 07:39:46;;;;;;;0.00;0.00;;;38.70;40.10;;;;;;5053524;28;20177;-63
2023/07/08 07:42:12;;;;;;;0.00;0.00;;;38.30;39.90;;;;;;5053382;28;20365;-62
2023/07/08 07:44:39;;;;;;;0.00;0.00;;;38.40;41.00;;;;;;5053161;28;20180;-62
2023/07/08 07:47:06;;;;;;;0.85;0.20;;;38.70;40.50;;;;;;5052064;28;20185;-62
2023/07/08 07:49:31;;;;;;;0.95;0.52;;;38.60;40.50;;;;;;5053104;28;20263;-62
2023/07/08 07:51:57;;;;;;;0.00;0.00;;;38.70;40.90;;;;;;5053277;28;20267;-65
2023/07/08 07:54:23;;;;;;;0.00;0.00;;;38.50;40.10;;;;;;5053065;28;20223;-64
2023/07/08 07:56:48;;;;;;;0.50;0.50;;;37.50;40.80;;;;;;5053010;28;20181;-64
2023/07/08 07:59:14;;;;;;;0.00;0.00;;;36.50;42.10;;;;;;5052871;28;20529;-64
2023/07/08 08:01:41;;;;;;;0.00;0.00;;;35.90;43.10;;;;;;5052693;28;20235;-63
2023/07/08 08:04:08;;;;;;;0.08;0.08;;;35.30;44.70;;;;;;5052850;28;20628;-64
2023/07/08 08:06:34;;;;;;;0.00;0.00;;;35.00;45.10;;;;;;5052850;28;20189;-64
2023/07/08 08:08:59;;;;;;;0.00;0.00;;;34.70;45.50;;;;;;5052645;28;20463;-64
2023/07/08 08:11:28;;;;;;;0.47;0.08;;;34.40;46.20;;;;;;5052214;28;20181;-64
2023/07/08 08:13:53;;;;;;;0.10;0.10;;;34.20;46.90;;;;;;5052647;28;20537;-64
2023/07/08 08:16:20;;;;;;;0.13;0.13;;;33.90;46.10;;;;;;5052492;28;20181;-64
2023/07/08 08:18:46;;;;;;;0.00;0.00;;;33.90;45.90;;;;;;5052578;28;20181;-64
2023/07/08 08:21:11;;;;;;;0.38;0.38;;;33.80;46.50;;;;;;5052760;28;20180;-65
2023/07/08 08:23:37;;;;;;;0.20;0.20;;;33.60;46.60;;;;;;5052575;28;20195;-63
2023/07/08 08:26:02;;;;;;;0.00;0.00;;;33.10;47.30;;;;;;5052661;28;20195;-65
2023/07/08 08:28:28;;;;;;;0.00;0.00;;;32.80;48.40;;;;;;5050983;28;20216;-65
2023/07/08 08:30:53;;;;;;;0.00;0.00;;;32.40;49.20;;;;;;5052495;28;20594;-65
2023/07/08 08:33:20;;;;;;;0.13;0.13;;;32.70;51.10;;;;;;5051944;28;20181;-65
2023/07/08 08:35:46;;;;;;;0.00;0.00;;;33.60;49.80;;;;;;5050587;28;20260;-64
2023/07/08 08:38:11;;;;;;;0.00;0.00;;;34.20;48.00;;;;;;5051307;28;20264;-65
2023/07/08 08:40:39;;;;;;;0.00;0.00;;;34.50;47.10;;;;;;5052186;28;20632;-65
2023/07/08 08:43:10;;;;;;;0.00;0.00;;;35.00;47.00;;;;;;5052257;28;20224;-65
2023/07/08 08:46:09;;;;;;;0.00;0.00;;;35.40;46.40;;;;;;5052471;28;20169;-65
2023/07/08 08:48:51;;;;;;;0.00;0.00;;;35.70;45.60;;;;;;5052344;28;20256;-65
2023/07/08 08:51:17;;;;;;;0.03;0.03;;;35.90;44.60;;;;;;5052088;28;20290;-67
2023/07/08 08:53:44;;;;;;;0.00;0.00;;;36.30;45.70;;;;;;5050934;28;20260;-65
2023/07/08 08:56:16;;;;;;;0.00;0.00;;;36.60;45.20;;;;;;5052230;28;20181;-64
2023/07/08 08:58:46;;;;;;;0.10;0.10;;;36.90;45.10;;;;;;5051925;28;20173;-65
2023/07/08 09:01:15;;;;;;;0.00;0.00;;;37.20;44.10;;;;;;5051954;28;20278;-64
2023/07/08 09:04:00;;;;;;;0.00;0.00;;;37.20;43.30;;;;;;5051933;28;20181;-64
2023/07/08 09:06:28;;;;;;;0.00;0.00;;;36.90;42.70;;;;;;5051929;28;20200;-64
2023/07/08 09:08:56;;;;;;;0.00;0.00;;;36.80;44.40;;;;;;5051913;28;20208;-64
2023/07/08 09:11:42;;;;;;;0.00;0.00;;;37.00;43.90;;;;;;5051651;28;20231;-64
2023/07/08 09:14:28;;;;;;;0.00;0.00;;;37.50;44.70;;;;;;5051824;28;20231;-65
2023/07/08 09:17:17;;;;;;;0.00;0.00;;;38.00;43.00;;;;;;5051838;28;20195;-65
2023/07/08 09:19:49;;;;;;;0.00;0.00;;;38.10;41.60;;;;;;5051929;28;20187;-65
2023/07/08 09:22:28;;;;;;;0.17;0.17;;;38.00;41.80;;;;;;5051672;28;20224;-65
2023/07/08 09:25:07;;;;;;;0.00;0.00;;;37.70;42.00;;;;;;5051800;28;20207;-65
2023/07/08 09:27:32;;;;;;;0.00;0.00;;;37.30;42.70;;;;;;5051334;28;20223;-65
2023/07/08 09:29:58;;;;;;;0.00;0.00;;;37.40;44.10;;;;;;5051491;28;20632;-65
2023/07/08 09:32:26;;;;;;;0.00;0.00;;;37.60;44.20;;;;;;5051518;28;20168;-65
2023/07/08 09:35:17;;;;;;;0.10;0.10;;;37.90;43.40;;;;;;5051425;28;20181;-65
2023/07/08 09:37:46;;;;;;;0.00;0.00;;;38.00;42.30;;;;;;5051518;28;20174;-65
2023/07/08 09:40:22;;;;;;;0.00;0.00;;;38.10;42.40;;;;;;5051381;28;20165;-65
2023/07/08 09:42:56;;;;;;;0.10;0.10;;;37.80;42.40;;;;;;5051360;28;20434;-65
2023/07/08 09:45:24;;;;;;;0.00;0.00;;;37.50;41.70;;;;;;5051328;28;20219;-65
2023/07/08 09:47:54;;;;;;;0.00;0.00;;;37.20;42.60;;;;;;5051303;28;20173;-65
2023/07/08 09:50:27;;;;;;;0.00;0.00;;;37.00;43.10;;;;;;5051167;28;20628;-65
2023/07/08 09:52:57;;;;;;;0.00;0.00;;;36.80;43.00;;;;;;5051098;28;20636;-65
2023/07/08 09:55:22;;;;;;;0.00;0.00;;;36.70;43.30;;;;;;5051112;28;20180;-65
2023/07/08 09:57:51;;;;;;;0.73;0.57;;;36.90;42.50;;;;;;5051266;28;20666;-65
2023/07/08 10:00:19;;;;;;;0.00;0.00;;;37.30;42.40;;;;;;5051106;28;20177;-65
2023/07/08 10:02:53;;;;;;;0.10;0.10;;;37.30;43.00;;;;;;5051006;28;20668;-66
2023/07/08 10:05:24;;;;;;;0.30;0.30;;;37.60;43.00;;;;;;5050852;28;20626;-65
2023/07/08 10:07:53;;;;;;;0.00;0.00;;;37.90;42.40;;;;;;5051042;28;20177;-65
2023/07/08 10:10:26;;;;;;;0.00;0.00;;;38.30;43.10;;;;;;5050850;28;20173;-65
2023/07/08 10:13:02;;;;;;;0.00;0.00;;;38.70;41.80;;;;;;5051002;28;20187;-65
2023/07/08 10:15:43;;;;;;;0.00;0.00;;;38.90;41.40;;;;;;5050966;28;21179;-65
2023/07/08 10:18:17;;;;;;;0.00;0.00;;;38.90;41.40;;;;;;5050895;28;20275;-65
2023/07/08 10:20:59;;;;;;;0.00;0.00;;;38.70;41.60;;;;;;5050878;28;20181;-66
2023/07/08 10:24:02;;;;;;;2.05;0.60;;;38.60;42.10;;;;;;5050839;28;20197;-65
2023/07/08 10:26:31;;;;;;;0.00;0.00;;;38.20;40.60;;;;;;5050874;28;20251;-65
2023/07/08 10:29:18;;;;;;;0.10;0.10;;;38.10;38.10;;;;;;5050600;28;20715;-65
2023/07/08 10:32:11;;;;;;;0.00;0.00;;;37.70;37.80;;;;;;5050887;28;20177;-65
2023/07/08 10:34:41;;;;;;;0.00;0.00;;;37.30;38.90;;;;;;5040908;28;20863;-65
2023/07/08 10:37:24;;;;;;;0.00;0.00;;;36.80;38.30;;;;;;5050815;28;20173;-65
2023/07/08 10:40:13;;;;;;;0.00;0.00;;;36.20;39.70;;;;;;5050805;28;20223;-65
2023/07/08 10:43:04;;;;;;;0.00;0.00;;;36.10;39.10;;;;;;5050393;28;20777;-66
2023/07/08 10:45:34;;;;;;;0.00;0.00;;;36.40;39.70;;;;;;5050544;28;20273;-65
2023/07/08 10:48:20;;;;;;;0.00;0.00;;;36.80;39.90;;;;;;5050612;28;20238;-65
2023/07/08 10:50:57;;;;;;;0.00;0.00;;;37.00;38.50;;;;;;5052138;28;20165;-65
2023/07/08 10:54:03;;;;;;;0.00;0.00;;;37.30;40.20;;;;;;5054508;28;20180;-65
2023/07/08 10:56:51;;;;;;;0.10;0.10;;;37.80;39.10;;;;;;5054367;28;20636;-66
2023/07/08 10:59:32;;;;;;;0.00;0.00;;;38.10;38.00;;;;;;5054308;28;20191;-65
2023/07/08 11:02:28;;;;;;;0.00;0.00;;;38.10;38.40;;;;;;5054083;28;20702;-66
2023/07/08 11:04:53;;;;;;;0.00;0.00;;;37.90;38.40;;;;;;5054439;28;20189;-65
2023/07/08 11:07:43;;;;;;;0.00;0.00;;;37.50;38.60;;;;;;5054312;28;20701;-65
2023/07/08 11:10:29;;;;;;;0.00;0.00;;;37.40;38.40;;;;;;5053997;28;20176;-65
2023/07/08 11:13:03;;;;;;;0.00;0.00;;;37.10;39.80;;;;;;5054041;28;20222;-65
2023/07/08 11:15:47;;;;;;;0.00;0.00;;;36.70;38.60;;;;;;5053909;28;20231;-65
2023/07/08 11:18:39;;;;;;;0.00;0.00;;;36.60;40.20;;;;;;5054033;28;20172;-65
2023/07/08 11:21:43;;;;;;;0.00;0.00;;;36.30;40.10;;;;;;5053966;28;20184;-65
2023/07/08 11:24:28;;;;;;;0.00;0.00;;;36.20;41.00;;;;;;5031558;28;20189;-65
2023/07/08 11:27:02;;;;;;;0.00;0.00;;;36.50;41.70;;;;;;5052685;28;20621;-65
2023/07/08 11:29:44;;;;;;;0.00;0.00;;;36.60;39.70;;;;;;5053666;28;20197;-65
2023/07/08 11:32:17;;;;;;;0.30;0.30;;;37.10;40.50;;;;;;5053658;28;20168;-65
2023/07/08 11:34:46;;;;;;;0.00;0.00;;;37.30;39.80;;;;;;5053661;28;20219;-65
2023/07/08 11:37:13;;;;;;;0.00;0.00;;;37.60;39.00;;;;;;5053739;28;20725;-65
2023/07/08 11:39:42;;;;;;;0.00;0.00;;;37.70;39.20;;;;;;5053653;28;20191;-65
2023/07/08 11:42:41;;;;;;;0.10;0.10;;;37.60;39.20;;;;;;5053726;28;20548;-65
2023/07/08 11:45:30;;;;;;;0.00;0.00;;;37.50;40.40;;;;;;5049287;28;20184;-65
2023/07/08 11:48:13;;;;;;;0.00;0.00;;;37.60;39.80;;;;;;5053530;28;20173;-65
2023/07/08 11:50:43;;;;;;;0.00;0.00;;;37.60;39.50;;;;;;5053162;28;20169;-65
2023/07/08 11:53:11;;;;;;;0.00;0.00;;;37.30;38.70;;;;;;5053404;28;20174;-65
2023/07/08 11:55:44;;;;;;;0.00;0.00;;;37.00;39.10;;;;;;5053160;28;20181;-65
2023/07/08 11:58:26;;;;;;;0.00;0.00;;;37.10;41.20;;;;;;5053337;28;20180;-65
2023/07/08 12:00:59;;;;;;;0.00;0.00;;;37.30;39.30;;;;;;5053105;28;20168;-65
2023/07/08 12:03:37;;;;;;;0.00;0.00;;;37.20;38.20;;;;;;5053107;28;20221;-65
2023/07/08 12:06:22;;;;;;;0.00;0.00;;;37.20;39.20;;;;;;5053225;28;20184;-65
2023/07/08 12:08:48;;;;;;;0.00;0.00;;;37.40;38.50;;;;;;5052782;28;20268;-65
2023/07/08 12:11:14;;;;;;;0.00;0.00;;;37.40;39.40;;;;;;5052818;28;20311;-65
2023/07/08 12:13:40;;;;;;;0.00;0.00;;;37.50;39.10;;;;;;5052657;28;20173;-65
2023/07/08 12:16:12;;;;;;;0.00;0.00;;;37.50;38.80;;;;;;5052838;28;20215;-65
2023/07/08 12:18:45;;;;;;;0.00;0.00;;;37.50;39.40;;;;;;5052668;28;20805;-65
2023/07/08 12:21:12;;;;;;;0.00;0.00;;;37.70;39.00;;;;;;5052809;28;20184;-65
2023/07/08 12:23:46;;;;;;;0.00;0.00;;;37.80;38.40;;;;;;5052769;28;20260;-65
2023/07/08 12:26:12;;;;;;;0.00;0.00;;;37.70;38.70;;;;;;5052866;28;20184;-65
2023/07/08 12:28:38;;;;;;;0.00;0.00;;;37.80;38.00;;;;;;5052291;28;20260;-65
2023/07/08 12:31:17;;;;;;;0.00;0.00;;;37.50;38.50;;;;;;5052728;28;20235;-65
2023/07/08 12:33:44;;;;;;;0.10;0.10;;;37.30;38.40;;;;;;5055014;28;20213;-65
2023/07/08 12:36:15;;;;;;;0.03;0.03;;;37.30;39.80;;;;;;5052502;28;20548;-65
2023/07/08 12:38:44;;;;;;;0.00;0.00;;;37.40;39.70;;;;;;5052367;28;20188;-65
2023/07/08 12:41:14;;;;;;;0.00;0.00;;;37.60;38.90;;;;;;5052430;28;20226;-65
2023/07/08 12:43:39;;;;;;;0.00;0.00;;;37.60;38.10;;;;;;5052170;28;20188;-65
2023/07/08 12:46:07;;;;;;;0.00;0.00;;;37.60;37.90;;;;;;5052414;28;20169;-65
2023/07/08 12:48:36;;;;;;;0.00;0.00;;;37.50;37.70;;;;;;5052218;28;20205;-65
2023/07/08 12:51:04;;;;;;;0.00;0.00;;;37.30;37.90;;;;;;5052093;28;20252;-65
2023/07/08 12:53:29;;;;;;;0.00;0.00;;;37.30;38.50;;;;;;5052020;28;20690;-65
2023/07/08 12:55:58;;;;;;;0.00;0.00;;;37.30;38.70;;;;;;5052323;28;20180;-65
2023/07/08 12:58:34;;;;;;;0.00;0.00;;;37.40;39.00;;;;;;5052090;28;20226;-65
2023/07/08 13:01:03;;;;;;;0.00;0.00;;;37.40;39.50;;;;;;5051935;28;20176;-65